x

8419317 - Wells, Me (welm1) Weather Station

1:54 - Tue 2nd Jun 2015 All times are EDT. -4 hours from GMT.

  • Wind
    6mph, 9mph gusts
  • Sea Temp 45°f
  • Luft Temp 47°f
  • Sea Pressure 1022.4mb
  • 8419317 - Wells, Me
  • 8419317 - Wells, Me

More Historic Weather Station data

Upgrade to MSW Pro to gain access to the past 30 days of data for over 8000 Wavebouys and Weather Stations around the globe.

Join Pro

Comparision Forecast

View Surf forecast
   
Di 06/02 1:54 6 9 mph 1022.4mb 45f 47f
1:48 6 10 mph 1022.4mb 45f 47f
1:42 10 14 mph 1022.4mb 45f 47f
1:36 8 11 mph 1022.3mb 45f 48f
1:30 8 13 mph 1022.2mb 45f 48f
1:24 8 13 mph 1022.2mb 45f 48f
1:18 8 11 mph 1022.2mb 45f 48f
1:12 10 14 mph 1022.2mb 45f 48f
1:06 10 16 mph 1022.2mb 45f 48f
1:00 14 17 mph 1022.2mb 45f 48f
12:54 11 14 mph 1022.1mb 45f 48f
12:48 10 14 mph 1022.3mb 45f 48f
12:42 9 13 mph 1022.2mb 45f 48f
12:36 9 11 mph 1022.2mb 45f 48f
12:30 9 14 mph 1022.2mb 45f 47f
12:24 11 14 mph 1022.2mb 45f 47f
12:18 9 13 mph 1022.1mb 45f 48f
12:12 10 15 mph 1022.3mb 45f 48f
12:06 11 16 mph 1022.3mb 45f 47f
12:00 14 18 mph 1022.3mb 45f 47f
11:54 9 11 mph 1022.3mb 45f 47f
11:48 8 14 mph 1022.3mb 45f 47f
11:42 10 17 mph 1022.4mb 45f 47f
11:36 9 15 mph 1022.4mb 45f 47f
11:30 14 16 mph 1022.4mb 45f 47f
11:24 11 16 mph 1022.4mb 45f 47f
11:18 9 15 mph 1022.5mb 44f 47f
11:12 11 20 mph 1022.5mb 44f 47f
11:06 10 14 mph 1022.6mb 44f 47f
11:00 9 11 mph 1022.6mb 44f 47f
10:54 8 13 mph 1022.6mb 44f 47f
10:48 11 14 mph 1022.5mb 44f 47f
10:42 9 14 mph 1022.5mb 44f 47f
10:36 11 14 mph 1022.4mb 44f 47f
10:30 11 15 mph 1022.4mb 44f 47f
10:24 11 15 mph 1022.3mb 44f 47f
10:18 9 13 mph 1022.3mb 44f 47f
10:12 8 10 mph 1022.2mb 44f 46f
10:06 8 14 mph 1022.2mb 44f 46f
10:00 11 13 mph 1022.1mb 44f 46f
9:54 9 13 mph 1022.1mb 44f 46f
9:48 9 13 mph 1022.2mb 44f 46f
9:42 10 13 mph 1022.1mb 44f 46f
9:36 13 16 mph 1022.1mb 44f 46f
9:30 10 15 mph 1022.1mb 44f 46f
9:24 10 14 mph 1022.1mb 44f 46f
9:18 11 14 mph 1022.2mb 44f 46f
9:12 10 15 mph 1022.2mb 44f 46f
9:06 13 17 mph 1022.2mb 44f 46f
9:00 11 17 mph 1022.4mb 44f 46f
8:54 9 14 mph 1022.4mb 44f 46f
8:48 9 14 mph 1022.5mb 44f 46f
8:42 9 14 mph 1022.6mb 44f 46f
8:36 8 13 mph 1022.6mb 44f 46f
8:30 9 13 mph 1022.6mb 44f 46f
8:24 10 16 mph 1022.6mb 44f 46f
8:18 10 14 mph 1022.7mb 45f 46f
8:12 9 13 mph 1022.9mb 45f 46f
8:06 8 9 mph 1023.2mb 45f 46f
8:00 7 9 mph 1023.3mb 45f 46f
7:54 5 7 mph 1023.1mb 45f 46f
7:48 5 9 mph 1022.9mb 45f 46f
7:42 7 10 mph 1022.6mb 45f 46f
7:36 7 13 mph 1022.4mb 45f 46f
7:30 9 13 mph 1022.3mb 45f 46f
7:24 10 14 mph 1022.2mb 45f 46f
7:18 9 14 mph 1022.3mb 45f 46f
7:12 9 13 mph 1022.4mb 45f 46f
7:06 9 11 mph 1022.5mb 45f 46f
7:00 9 13 mph 1022.5mb 45f 46f
6:54 10 14 mph 1022.5mb 45f 46f
6:48 8 13 mph 1022.6mb 45f 46f
6:42 10 11 mph 1022.4mb 45f 46f
6:36 8 10 mph 1022.5mb 45f 46f
6:30 7 10 mph 1022.7mb 45f 46f
6:24 7 13 mph 1022.7mb 45f 46f
6:18 9 16 mph 1022.4mb 45f 46f
6:12 11 17 mph 1022mb 45f 46f
6:06 10 13 mph 1022.1mb 45f 46f
6:00 7 11 mph 1022.5mb 45f 46f
5:54 9 13 mph 1022.3mb 45f 46f
5:48 9 15 mph 1022.3mb 45f 46f
5:42 8 13 mph 1022.5mb 45f 46f
5:36 9 14 mph 1022.5mb 45f 46f
5:30 9 15 mph 1022.7mb 45f 46f
5:24 10 14 mph 1022.7mb 45f 46f
5:18 9 14 mph 1022.6mb - 46f
5:12 9 14 mph 1022.5mb - 46f
5:06 9 14 mph 1022.5mb - 46f
5:00 10 15 mph - 45f 46f
4:54 9 11 mph - 45f 46f
4:48 7 11 mph 1022.4mb 45f 46f
4:42 9 13 mph 1022.4mb 45f 46f
4:36 9 11 mph 1022.4mb 45f 46f
4:30 8 14 mph 1022.4mb 44f 46f
4:24 9 13 mph 1022.3mb 44f 46f
4:18 9 15 mph 1022.5mb 44f 46f
4:12 9 13 mph 1022.6mb 44f 46f
4:06 10 17 mph 1022.7mb 44f 46f
4:00 10 14 mph 1022.7mb 44f 46f
3:54 9 15 mph 1022.7mb 44f 46f
3:48 9 14 mph 1022.8mb 44f 46f
3:42 10 16 mph 1022.8mb 44f 46f
3:36 9 14 mph 1022.8mb 44f 46f
3:30 9 14 mph 1022.9mb 44f 46f
3:24 10 14 mph 1022.9mb 44f 46f
3:18  -  mph 1023mb 44f 46f
3:12  -  mph 1022.9mb 44f 46f
3:06  -  mph 1023.1mb 44f 46f
3:00 10 17 mph 1023mb 44f 46f
2:54 11 15 mph 1023mb 44f 46f
2:48  -  mph 1023.1mb 44f -
2:42  -  mph 1023.2mb - -
2:36 10 14 mph 1023.4mb 44f -
2:30 9 15 mph 1023.6mb 44f -
2:24  -  mph 1023.6mb 44f -
2:18  -  mph - 44f 46f
2:12  -  mph - 44f -
2:06  -  mph - 44f 46f
2:00  -  mph - 44f 46f
1:54  -  mph - 44f 46f
1:48 13 15 mph 1023.7mb 44f 46f
1:42 9 13 mph 1023.7mb 44f 46f
1:36 10 16 mph 1023.9mb 44f 46f
1:30 8 13 mph 1023.9mb - 46f
1:24 9 16 mph 1024mb - 46f
1:18 10 14 mph 1024mb 44f 46f
1:12 11 16 mph 1024.1mb 44f 46f
1:06 13 17 mph 1024.1mb 44f 46f
1:00 11 17 mph 1024.1mb 44f 46f
12:54 9 17 mph 1024.2mb 44f 46f
12:48 9 15 mph 1024.2mb 44f 46f
12:42 13 16 mph 1024.2mb 44f 46f
12:36 13 16 mph 1024.3mb 44f 46f
12:30 14 17 mph 1024.5mb 44f 46f
12:24 14 21 mph 1024.5mb 44f 46f
12:18 8 15 mph 1024.9mb 44f 46f
12:12 10 16 mph 1024.8mb 44f 46f
12:06 13 15 mph 1024.8mb 44f 46f
12:00 11 14 mph 1024.8mb 44f 46f
Mo 06/01 11:54 10 21 mph 1024.8mb 44f 46f
11:48 14 17 mph 1024.7mb 44f 46f
11:42 13 20 mph 1024.7mb 44f 46f
11:36 14 18 mph 1024.8mb 44f 46f
11:30 15 18 mph 1024.8mb 44f 46f
11:24 14 18 mph 1024.8mb 44f 46f
11:18 13 17 mph 1025mb 44f 46f
11:12 13 18 mph 1025.1mb 44f 46f
11:06 13 17 mph 1025.2mb 44f 46f
11:00 14 20 mph 1025.4mb 44f 46f
10:54 14 17 mph 1025.4mb 44f 46f
10:48 13 20 mph 1025.4mb 44f 46f
10:42 15 21 mph 1025.2mb 44f 46f
10:36 14 18 mph 1025.5mb 44f 46f
10:30 13 17 mph 1025.6mb 44f 46f
10:24 14 16 mph 1025.7mb 44f 46f
10:18 14 20 mph 1025.8mb 44f 46f
10:12 11 17 mph 1025.8mb 44f 46f
10:06 10 20 mph 1026mb 44f 46f
10:00 11 17 mph 1025.9mb 44f 46f
9:54 13 20 mph 1025.7mb 44f 46f
9:48 13 20 mph 1025.6mb 44f 46f
9:42 13 22 mph 1025.5mb 44f 46f
9:36 15 22 mph 1025.5mb 44f 46f
9:30 15 21 mph 1025.6mb 44f 46f
9:24 11 16 mph 1025.6mb 44f 46f
9:18 13 20 mph 1025.5mb 44f 46f
9:12 16 23 mph 1025.3mb 44f 46f
9:06 15 20 mph 1025.3mb 44f 46f
9:00 16 23 mph 1025.3mb 44f 46f
8:54 17 23 mph 1025.2mb 44f 47f
8:48 17 23 mph 1025.2mb 44f 47f
8:42 18 24 mph 1025.2mb 44f 47f
8:36 14 21 mph 1025.3mb 44f 47f
8:30 14 17 mph 1025.3mb 44f 47f
8:24 14 22 mph 1025.2mb 44f 47f
8:18 16 25 mph 1025.2mb 44f 47f
8:12 16 22 mph 1025.1mb 44f 47f
8:06 13 17 mph 1025.3mb 44f 47f
8:00 15 22 mph 1025.2mb 44f 47f
7:54 14 20 mph 1025.5mb 44f 47f
7:48 14 18 mph 1025.5mb 44f 47f
7:42 13 18 mph 1025.5mb 44f 47f
7:36 10 17 mph 1025.5mb 45f 47f
7:30 15 23 mph 1025.3mb 45f 47f
7:24 13 23 mph 1025.3mb 45f 47f
7:18 15 20 mph 1025.2mb 46f 47f
7:12 10 16 mph 1025.4mb 46f 47f
7:06 16 21 mph 1025.4mb 46f 47f
7:00 15 21 mph 1025.3mb 46f 47f
6:54 14 22 mph 1025.4mb 46f 47f
6:48 16 22 mph 1025.2mb 46f 47f
6:42 17 25 mph 1025mb 46f 47f
6:36 16 21 mph 1025.1mb 46f 47f
6:30 13 18 mph 1025.3mb 46f 47f
6:24 17 26 mph 1025.3mb 46f 47f
6:18 16 22 mph 1025.2mb 46f 47f
6:12 17 22 mph 1025.1mb 46f 47f
6:06 18 23 mph 1025.1mb 46f 47f
6:00 15 24 mph 1025.2mb 46f 47f
5:54 14 21 mph 1025.1mb 46f 47f
5:48 14 18 mph 1025mb 46f 48f
5:42 11 18 mph 1024.9mb 46f 48f
5:36 9 13 mph 1024.9mb 46f 48f
5:30 10 15 mph 1025mb 46f 48f
5:24 11 15 mph 1025mb 46f 48f
5:18 11 17 mph 1025.1mb 46f 48f
5:12 14 18 mph 1025.1mb 46f 47f
5:06 11 15 mph 1025.2mb 46f 47f
5:00 14 20 mph 1025.2mb 46f 47f
4:54 14 21 mph 1025.1mb 46f 47f
4:48 11 22 mph 1025.2mb 46f 47f
4:42 14 23 mph 1025.2mb 46f 47f
4:36 16 18 mph 1025.2mb 46f 47f
4:30 15 21 mph 1025.3mb 46f 47f
4:24 15 21 mph 1025.4mb 46f 47f
4:18 18 23 mph 1025.3mb 46f 47f
4:12 15 20 mph 1025.2mb 46f 47f
4:06 13 18 mph 1025.2mb 46f 47f
4:00 10 17 mph 1025.3mb 46f 48f
3:54 13 17 mph 1025.2mb 46f 48f
3:48 11 18 mph 1025.2mb 45f 48f
3:42 13 18 mph 1025.2mb 45f 48f
3:36 15 20 mph 1025.2mb 45f 48f
3:30 10 16 mph 1025.3mb 45f 48f
3:24 10 15 mph 1025.4mb 45f 48f
3:18 14 20 mph 1025.4mb 45f 48f
3:12 14 21 mph 1025.3mb 45f 48f
3:06 14 20 mph 1025.5mb 45f 48f
3:00 13 15 mph 1025.5mb 45f 48f
2:54 13 17 mph 1025.5mb 45f 47f
2:48 15 22 mph 1025.4mb 45f 47f
2:42 13 20 mph 1025.3mb 45f 47f
2:36 11 18 mph 1025.2mb 45f 47f
2:30 15 22 mph 1025.2mb 45f 47f
2:24 14 18 mph 1025.2mb 45f 47f
2:18 14 20 mph 1025.4mb 45f 47f
2:12 17 22 mph 1025.4mb 44f 47f
2:06 14 21 mph 1025.5mb 44f 47f
2:00 10 17 mph 1025.5mb 44f 47f
1:54 14 21 mph 1025.5mb 44f 47f
1:48 15 21 mph 1025.5mb 44f 47f
1:42 13 17 mph 1025.6mb 44f 47f
1:36 16 21 mph 1025.6mb 44f 47f
1:30 13 17 mph 1025.7mb 44f 47f
1:24 14 18 mph 1025.7mb 44f 47f
1:18 16 23 mph 1025.7mb 44f 47f
1:12 15 20 mph 1025.7mb 44f 47f
1:06 11 17 mph 1025.9mb 44f 47f
1:00 13 20 mph 1025.9mb 44f 47f
12:54 11 14 mph 1026mb 44f 47f
12:48 9 14 mph 1026mb 44f 47f
12:42 14 17 mph 1026mb 44f 47f
12:36 14 21 mph 1025.8mb 44f 47f
12:30 15 22 mph 1025.8mb 44f 47f
12:24 15 23 mph 1025.8mb 44f 47f
12:18 17 21 mph 1025.8mb 44f 47f
12:12 13 20 mph 1025.8mb 44f 47f
12:06 15 22 mph 1025.7mb 44f 47f
12:00 11 23 mph 1025.8mb 43f 47f
11:54 15 22 mph 1025.5mb 43f 47f
11:48 18 25 mph 1025.5mb 44f 47f
11:42 16 22 mph 1025.4mb 43f 47f
11:36 14 18 mph 1025.4mb 43f 48f
11:30 14 21 mph 1025.3mb 43f 48f
11:24 16 20 mph 1025.3mb 43f 48f
11:18 14 18 mph 1025.3mb 43f 47f
11:12 14 21 mph 1025.4mb 43f 47f
11:06 13 17 mph 1025.5mb 43f 47f
11:00 13 18 mph 1025.4mb 43f 47f
10:54 14 18 mph 1025.3mb 43f 47f
10:48 14 17 mph 1025.3mb 43f 48f
10:42 14 18 mph 1025.3mb 43f 47f
10:36 14 16 mph 1025.4mb 43f 47f
10:30 14 17 mph 1025.5mb 43f 47f
10:24 11 17 mph 1025.5mb 43f 47f
10:18 14 18 mph 1025.4mb 43f 47f
10:12 13 17 mph 1025.2mb 43f 48f
10:06 11 16 mph 1025.2mb 43f 48f
10:00 13 20 mph 1025.1mb 43f 48f
9:54 14 17 mph 1025.1mb 43f 48f
9:48 14 17 mph 1025.1mb 43f 48f
9:42 14 20 mph 1025.1mb 43f 48f
9:36 13 20 mph 1025mb 43f 48f
9:30 11 16 mph 1024.9mb 43f 48f
9:24 15 20 mph 1025mb 43f 48f
9:18 11 15 mph 1025mb 43f 48f
9:12 14 18 mph 1025.1mb 43f 48f
9:06 14 17 mph 1024.9mb 43f 48f
9:00 11 17 mph 1025mb 43f 48f
8:54 16 20 mph 1025mb 44f 48f
8:48 13 16 mph 1024.9mb 44f 48f
8:42 14 21 mph 1024.8mb 44f 48f
8:36 13 17 mph 1024.8mb 44f 48f
8:30 15 20 mph 1024.6mb 44f 48f
8:24 13 17 mph 1024.7mb 44f 48f
8:18 11 17 mph 1024.7mb 44f 48f
8:12 13 16 mph 1024.6mb 44f 48f
8:06 11 15 mph 1024.7mb 45f 48f
8:00 11 16 mph 1024.8mb 46f 48f
7:54 13 17 mph 1024.8mb 46f 47f
7:48 10 16 mph 1024.9mb 46f 47f
7:42 13 16 mph 1024.9mb 47f 47f
7:36 9 16 mph 1024.9mb 47f 47f
7:30 10 18 mph 1024.8mb 47f 47f
7:24 13 21 mph 1024.6mb 47f 48f
7:18 11 17 mph 1024.7mb 47f 48f
7:12 11 21 mph 1024.5mb 47f 48f
7:06 13 17 mph 1024.5mb 47f 48f
7:00 10 17 mph 1024.7mb 47f 48f
6:54 10 15 mph 1024.6mb 47f 48f
6:48 13 20 mph 1024.6mb 47f 48f
5:54 7 9 mph 1024.4mb 47f 48f
5:48 7 9 mph 1024.3mb 47f 48f
4:00 8 9 mph 1024.3mb 47f -
3:54 7 9 mph 1024.2mb 47f -
3:48 8 10 mph 1024.2mb 47f -
3:42 7 9 mph 1024.1mb 47f -
3:36 7 9 mph 1024.1mb 47f -
3:30  -  mph 1024mb - -
3:24  -  mph 1023.8mb - -
3:18 7 9 mph 1023.8mb 47f -
3:12 8 10 mph 1023.8mb 47f 47f
3:06 8 10 mph 1023.7mb 47f 47f
3:00 7 10 mph 1023.7mb 47f 47f
2:54 6 9 mph 1023.9mb 47f 47f
2:48  -  mph 1023.8mb - -
2:42  -  mph 1024.1mb - -
2:36  -  mph 1023.9mb - -
2:30  -  mph - 46f 47f
2:24  -  mph - 46f 47f
2:18  -  mph - - 47f
2:12  -  mph - - 47f
2:06  -  mph - - 47f
2:00 7 8 mph - - -
1:54 6 9 mph - - -
1:48 7 9 mph 1024.2mb 46f 47f
1:42 7 9 mph 1024.2mb 46f 48f
1:36 8 10 mph 1024.2mb 46f 48f
1:30 7 8 mph 1024.3mb 46f 48f
1:24 8 9 mph 1024.4mb 46f 48f
1:18 8 9 mph 1024.5mb 46f 48f
1:12 7 8 mph 1024.6mb 46f 48f
1:06 6 7 mph 1024.6mb 46f 48f
1:00 6 8 mph 1024.7mb 45f 48f
12:54 6 8 mph 1024.7mb 45f 48f
12:48 6 7 mph 1024.8mb 45f 48f
12:42 6 8 mph 1024.8mb 45f 49f
12:36 7 9 mph 1024.7mb 45f 49f
12:30 7 8 mph 1024.9mb 45f 49f
12:24 8 10 mph 1024.8mb 45f 49f
12:18 8 11 mph 1024.9mb 45f 49f
12:12 7 10 mph 1025mb 45f 49f
12:06 9 11 mph 1024.8mb 45f 49f
12:00 10 13 mph 1024.8mb 45f 49f
So 05/31 11:54 10 13 mph 1024.7mb 45f 49f
11:48 10 14 mph 1024.5mb 45f 49f
11:42 11 15 mph 1024.6mb 45f 49f
11:36 11 15 mph 1024.6mb 45f 49f
11:30 10 14 mph 1024.6mb 45f 49f
11:24 9 16 mph 1024.6mb 45f 49f
11:18 11 15 mph 1024.7mb 45f 49f
11:12 10 11 mph 1024.7mb 45f 49f
11:06 9 11 mph 1024.7mb 45f 49f
11:00 9 13 mph 1024.9mb 45f 49f
10:54 9 13 mph 1025mb 45f 49f
10:48 10 11 mph 1025mb 45f 49f
10:42 7 10 mph 1025mb 45f 49f
10:36 6 7 mph 1025.1mb 45f 49f
10:30 6 7 mph 1025.1mb 45f 49f
10:24 6 7 mph 1025.1mb 45f 49f
10:18 5 6 mph 1025.1mb 45f 49f
10:12 5
mph
1025.5mb 45f 49f
10:06 5
mph
1025.3mb 45f 49f
10:00 5
mph
1025.3mb 45f 49f
9:54 6 7 mph 1025.3mb 45f 49f
9:48 5 6 mph 1025.3mb 45f 49f
9:42 5 7 mph 1025.3mb 45f 49f
9:36 3 5 mph 1025.3mb 45f 49f
9:30 5 6 mph 1025.3mb 45f 49f
9:24 6
mph
1025.4mb 45f 49f
9:18 3 6 mph 1025.2mb 45f 49f
9:12 6 7 mph 1025.2mb 45f 49f
9:06 3 5 mph 1025mb 45f 49f
9:00 3 5 mph 1025mb 45f 49f
8:54 3 5 mph 1024.9mb 45f 49f
8:48 3
mph
1024.7mb 45f 49f
8:42 3
mph
1024.7mb 45f 49f
8:36 3 6 mph 1024.4mb 45f 49f
8:30 5 6 mph 1024.3mb 45f 49f
8:24 5 6 mph 1024.2mb 45f 49f
8:18 5 6 mph 1024.2mb 46f 49f
8:12 5 6 mph 1024.2mb 46f 49f
8:06 6 7 mph 1024.4mb 46f 49f
8:00 6 7 mph 1024.4mb 46f 49f
7:54 6 7 mph 1024.4mb 46f 49f
7:48 6 9 mph 1024.3mb 46f 49f
7:42 6 10 mph 1024.2mb 46f 49f
7:36 8 11 mph 1024.1mb 47f 49f
7:00 8 16 mph 1024mb 51f 49f
6:54 10 15 mph 1023.5mb 51f 49f
6:48 10 15 mph 1023.6mb 51f 49f
6:42 11 17 mph 1023.7mb 51f 49f
6:36 11 18 mph 1023.5mb 51f 49f
6:30 13 20 mph 1023.3mb 51f 49f
6:24 14 18 mph 1023.3mb 51f 49f
6:18 11 16 mph 1023.2mb 51f 49f
6:12 11 17 mph 1023.1mb 51f 49f
6:06 14 20 mph 1023.1mb 50f 49f
6:00 14 20 mph 1023mb 50f 49f
5:54 13 21 mph 1023mb 50f 49f
5:48 14 18 mph 1023mb 50f 49f
5:42 13 17 mph 1023mb 50f 49f
5:36 13 15 mph 1022.9mb 50f 49f
5:30 10 15 mph 1023mb 50f 49f
5:24 11 16 mph 1023mb 50f 49f
5:18 13 16 mph 1023.1mb 50f 49f
5:12 14 18 mph 1023mb 49f 49f
5:06 14 20 mph 1022.7mb 49f 49f
5:00 13 18 mph 1022.7mb 49f 50f
4:54 11 17 mph 1022.7mb 49f 50f
4:48 7 14 mph 1022.7mb 49f 51f
4:42 13 16 mph 1022.5mb 48f 52f
4:36 13 17 mph 1022.5mb 48f 52f
4:30 10 14 mph 1022.4mb 48f 52f
4:24 13 17 mph 1022.3mb 48f 52f
4:18 10 16 mph 1022.4mb 48f 52f
4:12 11 17 mph 1022.4mb 48f 52f
4:06 13 21 mph 1022.2mb 48f 52f
4:00 11 16 mph 1022.2mb 48f 52f
3:54 13 17 mph 1022.2mb 48f 52f
3:48 14 17 mph 1022.1mb 48f 52f
3:42 11 17 mph 1022.2mb 47f 52f
3:36 14 17 mph 1022.2mb 47f 52f
3:30 13 18 mph 1021.9mb 47f 52f
3:24 15 18 mph 1021.7mb 48f 52f
3:18 14 17 mph 1021.7mb 48f 53f
3:12 9 15 mph 1021.8mb 48f 53f
3:06 13 17 mph 1021.7mb 48f 53f
3:00 11 17 mph 1021.7mb 48f 53f
2:54 11 15 mph 1021.6mb 48f 53f
2:48 13 20 mph 1021.6mb 48f 53f
2:42 14 22 mph 1021.2mb 48f 53f
2:36 17 22 mph 1021mb 48f 54f
2:30 15 25 mph 1021.1mb 48f 54f
2:24 15 22 mph 1021.1mb 47f 54f
2:18 14 20 mph 1021.2mb 47f 54f
2:12 11 20 mph 1021.2mb 47f 54f
2:06 17 25 mph 1020.8mb 47f 54f
2:00 17 25 mph 1020.4mb 47f 54f
1:54 18 28 mph 1020.1mb 47f 54f
1:48 17 25 mph 1020mb 47f 54f
1:42 22 29 mph 1019.9mb 47f 55f
1:36 20 28 mph 1019.9mb 46f 55f
1:30 16 25 mph 1020mb 46f 56f
1:24 18 24 mph 1019.9mb 46f 57f
1:18 14 17 mph 1019.8mb 46f 58f
1:12 13 20 mph 1019.7mb 46f 58f
1:06 11 15 mph 1019.4mb 46f 59f
1:00 9 14 mph 1019.3mb 45f 59f
12:54 8 14 mph 1019.2mb 45f 59f
12:48 11 17 mph 1019mb 45f 59f
12:42 13 18 mph 1018.8mb 45f 59f
12:36 14 21 mph 1018.9mb 45f 59f
12:30 14 20 mph 1018.7mb 45f 59f
12:24 16 22 mph 1018.6mb 45f 60f
12:18 16 22 mph 1018.4mb 45f 60f
12:12 11 17 mph 1018.4mb 45f 60f
12:06 16 21 mph 1018.2mb 45f 61f
12:00 14 20 mph 1018.2mb 45f 61f
11:54 15 23 mph 1018.2mb 45f 61f
11:48 14 18 mph 1017.9mb 44f 61f
11:42 14 20 mph 1017.9mb 44f 62f
11:36 14 17 mph 1017.6mb 44f 61f
11:30 13 14 mph 1017.5mb 44f 61f
11:24 8 16 mph 1017.4mb 44f 60f
11:18 13 15 mph 1017.3mb 44f 64f
11:12 14 18 mph 1017.3mb 44f 64f
11:06 13 16 mph 1017mb 44f 64f
11:00 11 17 mph 1017.1mb 44f 60f
10:54 6 7 mph 1017mb 44f 56f
10:48 5 7 mph 1016.7mb 44f 57f
10:42 6 8 mph 1016.5mb 44f 57f
10:36  -  1 mph 1016.4mb 44f 60f
10:30  -  1 mph 1016.4mb 44f 61f
10:24  -  1 mph 1016.3mb 44f 60f
10:18 1 3 mph 1016.2mb 44f 60f
10:12 3 5 mph 1016.1mb 44f 60f
10:06 3 5 mph 1016mb 44f 56f
10:00 1 2 mph 1016.1mb 44f 56f
9:54 2 3 mph 1016mb 44f 56f
9:48 2 3 mph 1016mb 44f 56f
9:42 1 2 mph 1015.9mb 44f 57f
9:36 2 3 mph 1015.9mb 44f 58f
9:30 3 5 mph 1015.8mb 44f 59f
9:24 5
mph
1015.8mb 44f 58f
9:18 1 3 mph 1015.7mb 44f 60f
9:12 3 6 mph 1015.7mb 44f 61f
9:06 5 7 mph 1015.7mb 44f 59f
9:00 3 5 mph 1015.6mb 44f 65f
8:54 2 6 mph 1015.5mb 44f 64f
8:48 5 6 mph 1015.4mb 44f 64f
8:42 6 9 mph 1015.4mb 44f 68f
8:36 6 10 mph 1015.4mb 44f 72f
8:30 6 11 mph 1015.3mb 44f 72f
8:24 6 11 mph 1015.3mb 44f 72f
8:18 6 11 mph 1015.2mb 44f 72f
8:12 5 10 mph 1015.1mb 44f 72f
8:06 6 9 mph 1015mb 44f 71f
8:00 7 10 mph 1015mb 44f 71f
7:54 5 8 mph 1015mb 44f 71f
7:48 6 10 mph 1014.9mb 45f 71f
7:42 7 10 mph 1014.9mb 45f 71f
7:36 6 11 mph 1014.8mb 45f 71f
7:30 7 11 mph 1014.8mb 46f 70f
7:24 8 13 mph 1014.7mb 47f 70f
7:18 7 13 mph 1014.6mb 48f 70f
7:12 6 15 mph 1014.6mb 48f 70f
7:06 9 14 mph 1014.6mb 50f 70f
7:00 6 14 mph 1014.4mb 51f 70f
6:54 6 14 mph 1014.5mb 52f 70f
6:48 7 14 mph 1014.5mb 53f 70f
6:42 8 14 mph 1014.5mb 53f 70f
6:36 9 16 mph 1014.4mb 53f 70f
6:30 9 16 mph 1014.4mb 52f 70f
6:24 10 17 mph 1014.4mb 52f 70f
6:18 9 15 mph 1014.5mb 52f 70f
6:12 8 17 mph 1014.4mb 52f 70f
6:06 8 16 mph 1014.2mb 52f 70f
6:00 7 14 mph 1014.3mb 52f 70f
5:54 10 17 mph 1014.3mb 52f 70f
5:48 14 18 mph 1014.1mb 52f 70f
5:42 9 18 mph 1014.1mb 52f 70f
5:36 11 16 mph 1014mb 52f 70f
5:30 9 18 mph 1013.9mb 51f 70f
5:24 11 15 mph 1013.9mb 51f 70f
5:18 11 21 mph 1013.7mb 51f 70f
5:12 13 18 mph 1013.7mb 51f 70f
5:06 13 18 mph 1013.6mb 51f 70f
5:00 10 17 mph 1013.4mb 51f 70f
4:54 11 14 mph 1013.3mb 51f 70f
4:48 9 15 mph 1013.3mb 51f 70f
4:42 8 13 mph 1013.3mb 51f 70f
4:36 7 11 mph 1013.3mb 51f 70f
4:30 7 10 mph 1013.4mb 51f 70f
4:24 9 13 mph 1013.4mb 51f 71f
4:18 7 13 mph 1013.4mb 51f 71f
4:12 8 11 mph 1013.5mb 51f 70f
4:06 8 11 mph 1013.4mb 51f 71f
4:00 7 14 mph 1013.4mb 50f 71f
3:54 7 9 mph 1013.5mb 50f 71f
3:48 6 14 mph 1013.5mb 50f 70f
3:42 9 14 mph 1013.4mb 50f 69f
3:36 5 7 mph 1013.5mb 50f 66f
3:30 1 5 mph 1013.5mb 50f 63f
3:24 1 14 mph 1013.6mb 50f 65f
3:18 10 14 mph 1013.6mb 50f -
3:12 1 3 mph 1013.6mb 50f 62f
3:06 1 6 mph 1013.7mb 50f 61f
3:00 3 5 mph 1013.7mb 50f 58f
2:54  -  3 mph 1013.9mb 50f 58f
2:48 3 6 mph 1014mb 50f 55f
2:42 6
mph
1014mb 50f 54f
2:36 2 3 mph 1014.1mb 50f 55f
2:30 1 5 mph 1014.1mb 49f 55f
2:24 2 6 mph 1014.2mb 49f 56f
2:18 6 8 mph 1014.2mb 49f 55f
2:12 7 10 mph 1014.3mb 49f 55f
2:06 9 10 mph 1014.2mb 49f 56f
2:00 7 8 mph 1014.3mb 49f 56f
1:54 8 10 mph 1014.3mb 49f 57f
1:48 9 11 mph 1014.2mb 49f 58f
1:42 10 11 mph 1014.2mb 49f 60f
1:36 10 11 mph 1014.2mb 49f 60f
1:30 9 10 mph 1014.3mb 49f 58f
1:24 6 9 mph 1014.4mb 49f 57f
1:18 7 9 mph 1014.4mb 49f 57f
1:12 8 9 mph 1014.5mb 49f 57f
1:06 7 9 mph 1014.5mb 49f 59f
1:00 8 10 mph 1014.6mb 49f 59f
12:54 6 9 mph 1014.7mb 49f 60f
12:48 7 9 mph 1014.7mb 48f 60f
12:42 7 9 mph 1014.7mb 48f 59f
12:36 6 7 mph 1014.6mb 48f 59f
12:30 6 7 mph 1014.6mb 48f 59f
12:24 7 8 mph 1014.6mb 47f 59f
12:18 8 10 mph 1014.6mb 47f 60f
12:12 7 18 mph 1014.5mb 47f 65f
12:06 11 16 mph 1014.6mb 47f 73f
12:00 7 11 mph 1014.6mb 47f 66f
Sa 05/30 11:54 7 11 mph 1014.6mb 47f 68f
11:48 9 15 mph 1014.6mb 47f 73f
11:42 10 18 mph 1014.7mb 47f 73f
11:36 11 17 mph 1014.6mb 46f 73f
11:30 10 17 mph 1014.5mb 46f 73f
11:24 14 20 mph 1014.5mb 46f 73f
11:18 16 22 mph 1014.6mb 46f -
11:12 15 18 mph 1014.6mb 46f -
11:06 11 17 mph 1014.5mb 46f -
11:00 11 17 mph 1014.4mb 46f -
10:54 11 16 mph 1014.5mb 46f -
10:48 13 18 mph 1014.5mb 46f -
10:42 13 20 mph 1014.5mb 46f -
10:36 9 14 mph 1014.4mb 46f 65f
10:30 8 11 mph 1014.5mb 46f 62f
10:24 13 20 mph 1014.4mb 46f 68f
10:18 11 22 mph 1014.3mb 46f 69f
10:12 10 14 mph 1014.3mb 46f -
10:06 6 10 mph 1014.2mb 46f 61f
10:00 2 6 mph 1014.3mb 46f 59f
9:54 6 8 mph 1014.2mb 46f 58f
9:48 7 9 mph 1014.3mb 46f 57f
9:42 6 7 mph 1014.2mb 46f 56f
9:36 6 7 mph 1014.2mb 46f 56f
9:30 7 8 mph 1014.2mb 46f 56f
9:24 8 11 mph 1014.1mb 46f 56f
9:18 9 11 mph 1014.1mb 46f 56f
9:12 9 10 mph 1014.1mb 46f 56f
9:06 7 14 mph 1014mb 46f 56f
9:00 11 14 mph 1014mb 46f 56f
8:54 11 14 mph 1014.1mb 46f 57f
8:48 9 11 mph 1014.1mb 46f 56f
8:42 8 11 mph 1014mb 46f 57f
8:36 9 11 mph 1014.1mb 46f 57f
8:30 10 13 mph 1014.1mb 46f 58f
8:24 11 13 mph 1014mb 46f 59f
8:18 10 11 mph 1014mb 46f 58f
8:12 9 11 mph 1014.1mb 46f 59f
8:06 11 14 mph 1014.1mb 46f 59f
8:00 11 16 mph 1014.1mb 47f 60f
7:54 14 15 mph 1014.1mb 47f 60f
7:48 10 11 mph 1014mb 47f 61f
7:42 8 14 mph 1014mb 47f 61f
7:36 14 16 mph 1014mb 47f 62f
7:30 14 15 mph 1013.9mb 47f 62f
7:24 16 18 mph 1013.8mb 47f 62f
7:18 17 18 mph 1013.8mb 48f 64f
7:12 20 21 mph 1013.9mb 48f 63f
7:06 20 21 mph 1013.9mb 48f 62f
7:00 17 20 mph 1014mb 49f 63f
6:54 17 21 mph 1014.2mb 49f 64f
6:48 21 22 mph 1014.2mb 50f 64f
6:42 21 24 mph 1014.3mb 51f 64f
6:36 20 23 mph 1014.2mb 52f 65f
6:30 21 22 mph 1014.2mb 53f 67f
6:24 21 22 mph 1014.2mb 53f 66f
6:18 18 22 mph 1014.2mb 53f 66f
6:12 18 23 mph 1014.1mb 54f 66f
6:06 21 23 mph 1014.2mb 56f 66f
6:00 22 25 mph 1014.2mb 58f 64f
5:54 22 24 mph 1014.1mb 58f 64f
5:48 22 25 mph 1014.2mb 58f 64f
5:42 22 24 mph 1014.2mb 58f 65f
5:36 21 24 mph 1014.3mb 58f 63f
5:30 17 25 mph 1014.4mb 58f 64f
5:24 18 23 mph 1014.5mb 58f 63f
5:18 17 23 mph 1014.6mb 58f 64f
5:12 21 24 mph 1014.6mb 58f 65f
5:06 20 26 mph 1014.6mb 58f 64f
5:00 21 24 mph 1014.7mb 58f 62f
4:54 21 26 mph 1014.7mb 58f 63f
4:48 23 28 mph 1014.8mb 58f 63f
4:42 21 24 mph 1014.7mb 58f 61f
4:36 18 24 mph 1014.8mb 58f 61f
4:30 22 26 mph 1015mb 57f 62f
4:24 21 29 mph 1014.9mb 57f 61f
4:18 25 28 mph 1014.9mb 57f 62f
4:12 23 30 mph 1015mb 57f 62f
4:06 26 29 mph 1015mb 57f 63f
4:00 25 29 mph 1015.1mb 56f 62f
3:54 25 30 mph 1015.1mb 56f 63f
3:48 25 29 mph 1015.2mb 56f 64f
3:42 26 30 mph 1015.5mb 56f 63f
3:36 25 29 mph 1015.5mb 56f 64f
3:30 23 26 mph 1015.6mb 56f 64f
3:24 23 29 mph 1015.7mb 56f 64f
3:18 24 30 mph 1015.8mb 56f 63f
3:12 25 31 mph 1015.9mb 56f 64f
3:06 25 30 mph 1016mb 56f 66f
3:00 21 28 mph 1016mb 56f 65f
2:54 22 26 mph 1016.1mb 55f 65f
2:48 23 25 mph 1016.3mb 55f 65f
2:42 23 26 mph 1016.3mb 55f 64f
2:36 24 28 mph 1016.5mb 55f 65f
2:30 22 28 mph 1016.5mb 55f 65f
2:24 24 29 mph 1016.7mb 54f 64f
2:18 24 26 mph 1016.7mb 53f 64f
2:12 23 28 mph 1016.8mb 53f 65f
2:06 23 30 mph 1016.9mb 53f 64f
2:00 24 29 mph 1016.9mb 52f 64f
1:54 23 28 mph 1017mb 52f 64f
1:48 24 26 mph 1017.1mb 51f 64f
1:42 22 25 mph 1017.2mb 51f 64f
1:36 23 26 mph 1017.3mb 51f 65f
1:30 23 26 mph 1017.3mb 51f 64f
1:24 21 24 mph 1017.4mb 50f 63f
1:18 22 26 mph 1017.6mb 50f 63f
1:12 22 25 mph 1017.7mb 50f 63f
1:06 24 26 mph 1017.8mb 50f 62f
1:00 22 25 mph 1017.7mb 50f 61f
12:54 23 26 mph 1017.7mb 50f 61f
12:48 23 28 mph 1018mb 49f 61f
12:42 24 28 mph 1018mb 49f 60f
12:36 22 25 mph 1018mb 49f 60f
12:30 21 24 mph 1018.2mb 49f 58f
12:24 18 22 mph 1018.3mb 49f 58f
12:18 17 21 mph 1018.4mb 49f 57f
12:12 20 23 mph 1018.5mb 49f 57f
12:06 16 22 mph 1018.5mb 48f 57f
12:00 17 22 mph 1018.7mb 48f 57f
11:54 20 22 mph 1018.8mb 48f 57f
11:48 18 22 mph 1018.8mb 48f 57f
11:42 18 22 mph 1018.9mb 47f 57f
11:36 17 21 mph 1019mb 47f 57f
11:30 16 20 mph 1019.1mb 47f 58f
11:24 16 20 mph 1019.1mb 47f 58f
11:18 15 20 mph 1019.2mb 47f 57f
11:12 15 18 mph 1019.3mb 46f 57f
11:06 16 22 mph 1019.3mb 46f 57f
11:00 17 21 mph 1019.4mb 45f 56f
10:54 13 17 mph 1019.5mb 45f 56f
10:48 14 17 mph 1019.6mb 45f 56f
10:42 14 17 mph 1019.7mb 45f 56f
10:36 15 18 mph 1019.7mb 45f 56f
10:30 13 15 mph 1019.8mb 45f 56f
10:24 13 16 mph 1019.9mb 45f 56f
10:18 14 17 mph 1020mb 45f 56f
10:12 14 16 mph 1020mb 45f 56f
10:06 13 15 mph 1020.1mb 46f 56f
10:00 10 15 mph 1020.1mb 46f 55f
9:54 11 16 mph 1020.2mb 46f 56f
9:48 10 13 mph 1020.3mb 45f 56f
9:42 10 13 mph 1020.4mb 45f 55f
9:36 10 14 mph 1020.4mb 45f 55f
9:30 10 13 mph 1020.5mb 45f 55f
9:24 5 6 mph 1020.6mb 45f 55f
9:18 3 5 mph 1020.6mb 45f 55f
9:12 3 6 mph 1020.8mb 45f 54f
9:06 5 7 mph 1020.9mb 45f 54f
9:00 6 7 mph 1020.9mb 46f 54f
8:54 5 7 mph 1021mb 46f 55f
8:48 5 6 mph 1021mb 46f 55f
8:42 5 6 mph 1021mb 46f 54f
8:36 3 5 mph 1021.1mb 46f 53f
8:30 3 6 mph 1021.2mb 46f 53f
8:24 5 6 mph 1021.1mb 46f 53f
8:18 6
mph
1021.2mb 46f 53f
8:12 5 6 mph 1021.2mb 46f 54f
8:06 3
mph
1021.3mb 46f 54f
8:00 3
mph
1021.4mb 46f 53f
7:54 3 5 mph 1021.4mb 46f 53f
7:48 3
mph
1021.5mb 46f 53f
7:42 3
mph
1021.4mb 46f 53f
7:36 3 5 mph 1021.4mb 46f 52f
7:30 3 5 mph 1021.3mb 46f 52f
7:24 5
mph
1021.3mb 46f 52f
7:18 2
mph
1021.4mb 46f 52f
7:12  -  2 mph 1021.4mb 46f 53f
7:06 2
mph
1021.5mb 46f 53f
7:00 2
mph
1021.5mb 46f 51f
6:54 2
mph
1021.5mb 47f 51f
6:48 2 3 mph 1021.4mb 47f 51f
6:42 2 3 mph 1021.5mb 48f 51f
6:36 3
mph
1021.5mb 48f 51f
6:30 2
mph
1021.6mb 49f 51f
6:24 1 2 mph 1021.6mb 51f 51f
6:18 2
mph
1021.5mb 51f 51f
6:12 2
mph
1021.7mb 51f 52f
6:06  -  2 mph 1021.7mb 51f 51f
6:00 1 2 mph 1021.7mb 51f 51f
5:54 1 2 mph 1021.7mb 51f 51f
5:48 2 3 mph 1021.6mb 51f 51f
5:42 3
mph
1021.7mb 51f 51f
5:36 1 2 mph 1021.7mb 51f 52f
5:30  -  2 mph 1021.6mb 51f 52f
5:24 2
mph
1021.4mb 51f 52f
5:18 2
mph
- 51f 51f
5:12 2 3 mph - 51f 51f
5:06 3 5 mph - 51f 51f
5:00 5
mph
1021.4mb 51f 51f
4:54 5 6 mph 1021.3mb 51f 51f
4:48 5 6 mph 1021.3mb 51f 51f
4:42 6
mph
1021.3mb 51f 51f
4:36 6
mph
1021.2mb 51f 51f
4:30 5 6 mph 1021.2mb 50f 51f
4:24 3 5 mph 1021.2mb 50f 51f
4:18 3
mph
1021.3mb 50f 51f
4:12 3
mph
1021.4mb 50f 51f
4:06 3
mph
1021.4mb 50f 51f
4:00 2 5 mph 1021.5mb 50f 52f
3:54 3 5 mph 1021.5mb 50f 51f
3:48 5 6 mph 1021.4mb 50f 51f
3:42 5 6 mph 1021.4mb 50f 51f
3:36 5 6 mph 1021.3mb 49f 51f
3:30 5
mph
1021.4mb 49f 51f
3:24 5 6 mph 1021.5mb 49f 52f
3:18 3 5 mph 1021.6mb 49f 52f
3:12 5 6 mph 1021.6mb 49f 52f
3:06 3
mph
1021.7mb 49f 52f
3:00 2 3 mph 1021.8mb 49f 52f
2:54 3 5 mph 1021.9mb 49f 52f
2:48 2 3 mph - 49f 53f
2:42 3
mph
- 49f 52f
2:36 3 5 mph - 49f 52f
2:30 3 6 mph 1022mb 50f 52f
2:24 5 6 mph 1022mb 50f 52f
2:18 5
mph
- 50f 52f
2:12 3 5 mph - 50f 52f
2:06 3
mph
- 50f 52f
2:00 3 5 mph 1022.4mb 50f 52f
1:54 3 5 mph 1022.3mb 49f 53f
1:48 2 3 mph 1022.4mb 49f 53f
1:42 2 3 mph 1022.5mb 49f 53f
1:36 3
mph
1022.4mb 49f 53f
1:30 3
mph
1022.4mb 49f 53f
1:24 3 6 mph 1022.5mb 49f 53f
1:18 5 6 mph 1022.5mb 49f 53f
1:12 5 6 mph 1022.5mb 49f 53f
1:06 3 5 mph 1022.6mb 48f 53f
1:00 2 3 mph 1022.6mb 48f 53f
12:54 2 3 mph 1022.6mb 48f 53f
12:48 2 5 mph 1022.7mb 48f 53f
12:42 3 5 mph 1022.8mb 48f 53f
12:36 5 6 mph 1022.9mb 48f 53f
12:30 5 6 mph 1022.9mb 48f 53f
12:24 5 6 mph 1023mb 47f 53f
12:18 2 3 mph 1023mb 47f 53f
12:12 1 2 mph 1023.2mb 47f 53f
12:06  -  1 mph 1023.3mb 47f 53f
12:00  -  3 mph 1023.4mb 47f 53f
Fr 05/29 11:54 3
mph
1023.5mb 47f 53f
11:48 2 3 mph 1023.7mb 47f 53f
11:42 2
mph
1023.7mb 47f 53f
11:36 2
mph
1023.8mb 46f 53f
11:30 1 2 mph 1023.9mb 46f 53f
11:24 2
mph
1023.9mb 46f 53f
11:18 3 5 mph 1023.9mb 46f 53f
11:12 3 5 mph 1023.9mb 46f 53f
11:06 5 6 mph 1023.8mb 46f 53f
11:00 3 5 mph 1023.8mb 46f 53f
10:54 3 5 mph 1023.9mb 46f 53f
10:48 5
mph
1023.9mb 46f 53f
10:42 3 5 mph 1023.8mb 46f 53f
10:36 5 7 mph 1023.7mb 45f 54f
10:30 6 7 mph 1023.7mb 45f 54f
10:24 6
mph
1023.8mb 45f 54f
10:18 3 5 mph 1023.7mb 45f 54f
10:12 3 5 mph 1023.9mb 45f 54f
10:06 3 5 mph 1023.9mb 45f 54f
10:00 5
mph
1024mb 45f 54f
9:54 5 6 mph 1024.1mb 45f 54f
9:48 5 6 mph 1024mb 45f 54f
9:42 5 6 mph 1024.1mb 45f 55f
9:36 5 6 mph 1024mb 45f 55f
9:30 2
mph
1024mb 45f -
9:24 2 3 mph 1023.9mb 45f -
9:18 3
mph
1023.8mb 45f 55f
9:12 2
mph
1023.7mb 45f 55f
9:06 1 3 mph 1023.6mb 46f 55f
9:00 2
mph
1023.6mb 46f 55f
8:54 2
mph
1023.5mb 46f 55f
8:48 2
mph
1023.5mb 46f 56f
8:42 1
mph
1023.6mb 46f 55f
8:36  -  mph 1023.6mb 46f 55f
8:30  -  1 mph 1023.6mb 46f 55f
8:24  -  1 mph 1023.7mb 46f 55f
8:18 1 2 mph 1023.7mb 46f 55f
8:12 2 3 mph 1023.6mb 46f 55f
8:06 3
mph
1023.7mb 46f 55f
8:00 2 3 mph 1023.7mb 46f 55f
7:54 2 3 mph 1023.7mb 46f 55f
7:48 2 3 mph 1023.8mb 46f 55f
7:42 3
mph
1023.9mb 47f 56f
7:36 2 3 mph 1023.8mb 47f 56f
7:30 2 5 mph 1023.9mb 47f 56f
7:24 3 5 mph 1023.9mb 47f 56f
7:18 3 5 mph 1024mb 47f 56f
7:12 3 5 mph 1024mb 47f 56f
7:06 2 3 mph 1024.2mb 47f 56f
7:00 2 3 mph 1024.1mb 47f 56f
6:54 2 5 mph 1024.2mb 47f 56f